sensor_id;sensor_type;location;lat;lon;timestamp;P1;durP1;ratioP1;P2;durP2;ratioP2
18387;SDS011;9320;50.256;19.026;2023-07-31T00:00:01;7.75;;;5.55;;
18387;SDS011;9320;50.256;19.026;2023-07-31T00:02:29;7.40;;;5.32;;
18387;SDS011;9320;50.256;19.026;2023-07-31T00:04:57;6.07;;;5.07;;
18387;SDS011;9320;50.256;19.026;2023-07-31T00:07:26;5.32;;;4.82;;
18387;SDS011;9320;50.256;19.026;2023-07-31T00:09:55;6.15;;;5.03;;
18387;SDS011;9320;50.256;19.026;2023-07-31T00:12:24;8.63;;;5.50;;
18387;SDS011;9320;50.256;19.026;2023-07-31T00:14:52;6.78;;;4.93;;
18387;SDS011;9320;50.256;19.026;2023-07-31T00:17:20;6.13;;;5.47;;
18387;SDS011;9320;50.256;19.026;2023-07-31T00:19:48;9.80;;;5.88;;
18387;SDS011;9320;50.256;19.026;2023-07-31T00:22:17;6.35;;;5.35;;
18387;SDS011;9320;50.256;19.026;2023-07-31T00:24:45;7.18;;;5.15;;
18387;SDS011;9320;50.256;19.026;2023-07-31T00:27:14;7.07;;;5.63;;
18387;SDS011;9320;50.256;19.026;2023-07-31T00:29:42;6.10;;;5.50;;
18387;SDS011;9320;50.256;19.026;2023-07-31T00:32:10;6.28;;;5.50;;
18387;SDS011;9320;50.256;19.026;2023-07-31T00:34:38;7.60;;;5.50;;
18387;SDS011;9320;50.256;19.026;2023-07-31T00:37:06;7.70;;;5.90;;
18387;SDS011;9320;50.256;19.026;2023-07-31T00:39:34;8.13;;;6.07;;
18387;SDS011;9320;50.256;19.026;2023-07-31T00:42:03;8.10;;;6.43;;
18387;SDS011;9320;50.256;19.026;2023-07-31T00:44:33;6.78;;;6.07;;
18387;SDS011;9320;50.256;19.026;2023-07-31T00:47:01;8.32;;;6.05;;
18387;SDS011;9320;50.256;19.026;2023-07-31T00:49:29;9.05;;;6.40;;
18387;SDS011;9320;50.256;19.026;2023-07-31T00:51:57;8.45;;;5.70;;
18387;SDS011;9320;50.256;19.026;2023-07-31T00:54:25;6.18;;;5.10;;
18387;SDS011;9320;50.256;19.026;2023-07-31T00:56:53;7.40;;;5.43;;
18387;SDS011;9320;50.256;19.026;2023-07-31T00:59:22;7.72;;;5.05;;
18387;SDS011;9320;50.256;19.026;2023-07-31T01:01:51;6.50;;;5.25;;
18387;SDS011;9320;50.256;19.026;2023-07-31T01:04:20;6.53;;;5.35;;
18387;SDS011;9320;50.256;19.026;2023-07-31T01:06:52;8.88;;;5.20;;
18387;SDS011;9320;50.256;19.026;2023-07-31T01:09:26;5.45;;;4.95;;
18387;SDS011;9320;50.256;19.026;2023-07-31T01:12:01;5.75;;;5.15;;
18387;SDS011;9320;50.256;19.026;2023-07-31T01:14:31;5.82;;;5.22;;
18387;SDS011;9320;50.256;19.026;2023-07-31T01:17:00;7.55;;;5.18;;
18387;SDS011;9320;50.256;19.026;2023-07-31T01:19:28;8.52;;;5.22;;
18387;SDS011;9320;50.256;19.026;2023-07-31T01:21:59;7.38;;;5.28;;
18387;SDS011;9320;50.256;19.026;2023-07-31T01:24:46;6.35;;;4.90;;
18387;SDS011;9320;50.256;19.026;2023-07-31T01:27:24;5.13;;;4.63;;
18387;SDS011;9320;50.256;19.026;2023-07-31T01:29:59;5.82;;;4.80;;
18387;SDS011;9320;50.256;19.026;2023-07-31T01:32:37;5.97;;;4.63;;
18387;SDS011;9320;50.256;19.026;2023-07-31T01:35:08;6.43;;;4.90;;
18387;SDS011;9320;50.256;19.026;2023-07-31T01:37:36;6.82;;;4.82;;
18387;SDS011;9320;50.256;19.026;2023-07-31T01:40:05;6.03;;;4.28;;
18387;SDS011;9320;50.256;19.026;2023-07-31T01:42:35;7.00;;;4.95;;
18387;SDS011;9320;50.256;19.026;2023-07-31T01:45:03;6.43;;;4.30;;
18387;SDS011;9320;50.256;19.026;2023-07-31T01:47:32;4.80;;;4.25;;
18387;SDS011;9320;50.256;19.026;2023-07-31T01:50:00;6.13;;;4.50;;
18387;SDS011;9320;50.256;19.026;2023-07-31T01:52:30;4.82;;;4.32;;
18387;SDS011;9320;50.256;19.026;2023-07-31T01:54:58;4.97;;;4.47;;
18387;SDS011;9320;50.256;19.026;2023-07-31T01:57:26;5.18;;;4.07;;
18387;SDS011;9320;50.256;19.026;2023-07-31T01:59:56;5.25;;;4.32;;
18387;SDS011;9320;50.256;19.026;2023-07-31T02:02:24;4.85;;;4.10;;
18387;SDS011;9320;50.256;19.026;2023-07-31T02:04:52;10.60;;;4.60;;
18387;SDS011;9320;50.256;19.026;2023-07-31T02:07:20;4.85;;;4.35;;
18387;SDS011;9320;50.256;19.026;2023-07-31T02:09:48;5.55;;;4.57;;
18387;SDS011;9320;50.256;19.026;2023-07-31T02:12:16;6.45;;;4.40;;
18387;SDS011;9320;50.256;19.026;2023-07-31T02:14:44;5.00;;;4.50;;
18387;SDS011;9320;50.256;19.026;2023-07-31T02:17:13;4.78;;;4.25;;
18387;SDS011;9320;50.256;19.026;2023-07-31T02:19:41;7.60;;;4.60;;
18387;SDS011;9320;50.256;19.026;2023-07-31T02:22:09;4.90;;;4.13;;
18387;SDS011;9320;50.256;19.026;2023-07-31T02:24:37;6.75;;;4.72;;
18387;SDS011;9320;50.256;19.026;2023-07-31T02:27:06;4.88;;;4.35;;
18387;SDS011;9320;50.256;19.026;2023-07-31T02:29:34;4.75;;;4.25;;
18387;SDS011;9320;50.256;19.026;2023-07-31T02:32:02;4.63;;;4.20;;
18387;SDS011;9320;50.256;19.026;2023-07-31T02:34:32;9.18;;;4.95;;
18387;SDS011;9320;50.256;19.026;2023-07-31T02:37:00;5.97;;;4.68;;
18387;SDS011;9320;50.256;19.026;2023-07-31T02:39:28;6.32;;;4.68;;
18387;SDS011;9320;50.256;19.026;2023-07-31T02:41:56;5.65;;;4.75;;
18387;SDS011;9320;50.256;19.026;2023-07-31T02:44:24;6.53;;;4.53;;
18387;SDS011;9320;50.256;19.026;2023-07-31T02:46:52;7.47;;;4.80;;
18387;SDS011;9320;50.256;19.026;2023-07-31T02:49:20;5.95;;;4.60;;
18387;SDS011;9320;50.256;19.026;2023-07-31T02:51:49;6.68;;;4.50;;
18387;SDS011;9320;50.256;19.026;2023-07-31T02:54:17;8.70;;;4.38;;
18387;SDS011;9320;50.256;19.026;2023-07-31T02:56:47;5.22;;;4.70;;
18387;SDS011;9320;50.256;19.026;2023-07-31T02:59:16;5.63;;;4.50;;
18387;SDS011;9320;50.256;19.026;2023-07-31T03:01:44;6.43;;;4.78;;
18387;SDS011;9320;50.256;19.026;2023-07-31T03:04:12;4.95;;;4.43;;
18387;SDS011;9320;50.256;19.026;2023-07-31T03:06:44;5.00;;;4.53;;
18387;SDS011;9320;50.256;19.026;2023-07-31T03:09:13;6.68;;;4.18;;
18387;SDS011;9320;50.256;19.026;2023-07-31T03:11:41;5.72;;;4.18;;
18387;SDS011;9320;50.256;19.026;2023-07-31T03:14:09;6.32;;;4.68;;
18387;SDS011;9320;50.256;19.026;2023-07-31T03:16:37;7.57;;;4.88;;
18387;SDS011;9320;50.256;19.026;2023-07-31T03:19:05;8.27;;;4.95;;
18387;SDS011;9320;50.256;19.026;2023-07-31T03:21:33;8.30;;;5.40;;
18387;SDS011;9320;50.256;19.026;2023-07-31T03:24:01;7.72;;;5.35;;
18387;SDS011;9320;50.256;19.026;2023-07-31T03:26:32;7.75;;;5.25;;
18387;SDS011;9320;50.256;19.026;2023-07-31T03:29:00;9.48;;;5.60;;
18387;SDS011;9320;50.256;19.026;2023-07-31T03:31:28;11.95;;;5.72;;
18387;SDS011;9320;50.256;19.026;2023-07-31T03:33:56;10.05;;;5.93;;
18387;SDS011;9320;50.256;19.026;2023-07-31T03:36:24;7.45;;;5.63;;
18387;SDS011;9320;50.256;19.026;2023-07-31T03:38:52;7.82;;;5.82;;
18387;SDS011;9320;50.256;19.026;2023-07-31T03:41:21;11.82;;;6.03;;
18387;SDS011;9320;50.256;19.026;2023-07-31T03:43:51;11.93;;;7.40;;
18387;SDS011;9320;50.256;19.026;2023-07-31T03:46:19;11.68;;;6.82;;
18387;SDS011;9320;50.256;19.026;2023-07-31T03:48:47;11.65;;;6.43;;
18387;SDS011;9320;50.256;19.026;2023-07-31T03:51:15;11.45;;;6.45;;
18387;SDS011;9320;50.256;19.026;2023-07-31T03:53:44;10.80;;;6.20;;
18387;SDS011;9320;50.256;19.026;2023-07-31T03:56:12;7.50;;;5.95;;
18387;SDS011;9320;50.256;19.026;2023-07-31T03:58:40;11.00;;;6.03;;
18387;SDS011;9320;50.256;19.026;2023-07-31T04:01:10;11.27;;;6.32;;
18387;SDS011;9320;50.256;19.026;2023-07-31T04:03:38;6.75;;;5.78;;
18387;SDS011;9320;50.256;19.026;2023-07-31T04:06:06;8.10;;;6.18;;
18387;SDS011;9320;50.256;19.026;2023-07-31T04:08:34;10.77;;;6.57;;
18387;SDS011;9320;50.256;19.026;2023-07-31T04:11:02;11.13;;;6.13;;
18387;SDS011;9320;50.256;19.026;2023-07-31T04:13:30;11.00;;;6.15;;
18387;SDS011;9320;50.256;19.026;2023-07-31T04:16:00;7.43;;;6.15;;
18387;SDS011;9320;50.256;19.026;2023-07-31T04:18:29;10.73;;;6.00;;
18387;SDS011;9320;50.256;19.026;2023-07-31T04:20:58;7.30;;;6.00;;
18387;SDS011;9320;50.256;19.026;2023-07-31T04:23:27;6.78;;;5.40;;
18387;SDS011;9320;50.256;19.026;2023-07-31T04:25:55;8.20;;;6.00;;
18387;SDS011;9320;50.256;19.026;2023-07-31T04:28:23;8.20;;;5.70;;
18387;SDS011;9320;50.256;19.026;2023-07-31T04:30:52;6.60;;;5.90;;
18387;SDS011;9320;50.256;19.026;2023-07-31T04:33:20;8.55;;;6.15;;
18387;SDS011;9320;50.256;19.026;2023-07-31T04:35:51;10.30;;;5.93;;
18387;SDS011;9320;50.256;19.026;2023-07-31T04:38:20;9.23;;;6.38;;
18387;SDS011;9320;50.256;19.026;2023-07-31T04:40:49;7.45;;;5.93;;
18387;SDS011;9320;50.256;19.026;2023-07-31T04:43:17;6.47;;;5.88;;
18387;SDS011;9320;50.256;19.026;2023-07-31T04:45:45;7.20;;;6.22;;
18387;SDS011;9320;50.256;19.026;2023-07-31T04:48:14;8.90;;;5.40;;
18387;SDS011;9320;50.256;19.026;2023-07-31T04:50:42;7.75;;;6.68;;
18387;SDS011;9320;50.256;19.026;2023-07-31T04:53:11;7.18;;;6.47;;
18387;SDS011;9320;50.256;19.026;2023-07-31T04:55:39;7.25;;;6.32;;
18387;SDS011;9320;50.256;19.026;2023-07-31T04:58:07;8.95;;;6.82;;
18387;SDS011;9320;50.256;19.026;2023-07-31T05:00:35;8.35;;;6.45;;
18387;SDS011;9320;50.256;19.026;2023-07-31T05:03:04;8.68;;;6.28;;
18387;SDS011;9320;50.256;19.026;2023-07-31T05:05:33;8.63;;;6.32;;
18387;SDS011;9320;50.256;19.026;2023-07-31T05:08:01;10.20;;;6.82;;
18387;SDS011;9320;50.256;19.026;2023-07-31T05:10:30;9.02;;;6.68;;
18387;SDS011;9320;50.256;19.026;2023-07-31T05:12:58;8.02;;;6.25;;
18387;SDS011;9320;50.256;19.026;2023-07-31T05:15:26;8.77;;;6.38;;
18387;SDS011;9320;50.256;19.026;2023-07-31T05:17:55;6.78;;;6.18;;
18387;SDS011;9320;50.256;19.026;2023-07-31T05:20:23;10.23;;;6.97;;
18387;SDS011;9320;50.256;19.026;2023-07-31T05:22:51;11.38;;;7.07;;
18387;SDS011;9320;50.256;19.026;2023-07-31T05:25:19;9.93;;;6.88;;
18387;SDS011;9320;50.256;19.026;2023-07-31T05:27:48;7.38;;;6.72;;
18387;SDS011;9320;50.256;19.026;2023-07-31T05:30:16;7.78;;;6.22;;
18387;SDS011;9320;50.256;19.026;2023-07-31T05:32:45;8.60;;;7.85;;
18387;SDS011;9320;50.256;19.026;2023-07-31T05:35:13;6.90;;;6.30;;
18387;SDS011;9320;50.256;19.026;2023-07-31T05:37:41;11.00;;;6.57;;
18387;SDS011;9320;50.256;19.026;2023-07-31T05:40:09;7.90;;;6.20;;
18387;SDS011;9320;50.256;19.026;2023-07-31T05:42:37;7.85;;;6.60;;
18387;SDS011;9320;50.256;19.026;2023-07-31T05:45:07;6.72;;;5.90;;
18387;SDS011;9320;50.256;19.026;2023-07-31T05:47:36;10.52;;;6.38;;
18387;SDS011;9320;50.256;19.026;2023-07-31T05:50:04;9.40;;;6.03;;
18387;SDS011;9320;50.256;19.026;2023-07-31T05:52:32;11.32;;;6.50;;
18387;SDS011;9320;50.256;19.026;2023-07-31T05:55:01;9.40;;;5.72;;
18387;SDS011;9320;50.256;19.026;2023-07-31T05:57:29;7.55;;;5.85;;
18387;SDS011;9320;50.256;19.026;2023-07-31T05:59:57;6.95;;;6.10;;
18387;SDS011;9320;50.256;19.026;2023-07-31T06:02:27;8.10;;;6.35;;
18387;SDS011;9320;50.256;19.026;2023-07-31T06:04:55;10.27;;;6.07;;
18387;SDS011;9320;50.256;19.026;2023-07-31T06:07:23;7.22;;;6.30;;
18387;SDS011;9320;50.256;19.026;2023-07-31T06:09:51;11.38;;;6.80;;
18387;SDS011;9320;50.256;19.026;2023-07-31T06:12:21;6.63;;;5.63;;
18387;SDS011;9320;50.256;19.026;2023-07-31T06:14:49;9.75;;;6.13;;
18387;SDS011;9320;50.256;19.026;2023-07-31T06:17:17;7.75;;;5.78;;
18387;SDS011;9320;50.256;19.026;2023-07-31T06:19:47;12.55;;;5.75;;
18387;SDS011;9320;50.256;19.026;2023-07-31T06:22:15;7.78;;;5.78;;
18387;SDS011;9320;50.256;19.026;2023-07-31T06:24:43;10.23;;;5.95;;
18387;SDS011;9320;50.256;19.026;2023-07-31T06:27:11;12.48;;;5.93;;
18387;SDS011;9320;50.256;19.026;2023-07-31T06:29:39;6.85;;;5.25;;
18387;SDS011;9320;50.256;19.026;2023-07-31T06:32:08;8.77;;;5.40;;
18387;SDS011;9320;50.256;19.026;2023-07-31T06:34:36;6.20;;;5.60;;
18387;SDS011;9320;50.256;19.026;2023-07-31T06:37:06;7.05;;;5.70;;
18387;SDS011;9320;50.256;19.026;2023-07-31T06:39:34;6.10;;;5.28;;
18387;SDS011;9320;50.256;19.026;2023-07-31T06:42:02;7.00;;;5.40;;
18387;SDS011;9320;50.256;19.026;2023-07-31T06:44:30;10.20;;;5.47;;
18387;SDS011;9320;50.256;19.026;2023-07-31T06:46:58;8.23;;;5.38;;
18387;SDS011;9320;50.256;19.026;2023-07-31T06:49:26;7.95;;;5.88;;
18387;SDS011;9320;50.256;19.026;2023-07-31T06:51:54;7.05;;;5.40;;
18387;SDS011;9320;50.256;19.026;2023-07-31T06:54:24;8.52;;;5.60;;
18387;SDS011;9320;50.256;19.026;2023-07-31T06:56:52;11.52;;;5.65;;
18387;SDS011;9320;50.256;19.026;2023-07-31T06:59:20;6.80;;;6.00;;
18387;SDS011;9320;50.256;19.026;2023-07-31T07:01:48;8.43;;;5.75;;
18387;SDS011;9320;50.256;19.026;2023-07-31T07:04:16;6.10;;;5.50;;
18387;SDS011;9320;50.256;19.026;2023-07-31T07:06:44;7.30;;;5.70;;
18387;SDS011;9320;50.256;19.026;2023-07-31T07:09:12;9.40;;;5.78;;
18387;SDS011;9320;50.256;19.026;2023-07-31T07:11:41;8.60;;;6.00;;
18387;SDS011;9320;50.256;19.026;2023-07-31T07:14:09;6.35;;;5.75;;
18387;SDS011;9320;50.256;19.026;2023-07-31T07:16:37;10.10;;;5.95;;
18387;SDS011;9320;50.256;19.026;2023-07-31T07:19:08;6.38;;;5.30;;
18387;SDS011;9320;50.256;19.026;2023-07-31T07:21:36;9.65;;;5.85;;
18387;SDS011;9320;50.256;19.026;2023-07-31T07:24:04;7.68;;;5.15;;
18387;SDS011;9320;50.256;19.026;2023-07-31T07:26:32;9.75;;;5.78;;
18387;SDS011;9320;50.256;19.026;2023-07-31T07:29:01;6.97;;;5.32;;
18387;SDS011;9320;50.256;19.026;2023-07-31T07:31:29;8.40;;;5.50;;
18387;SDS011;9320;50.256;19.026;2023-07-31T07:33:57;7.25;;;5.50;;
18387;SDS011;9320;50.256;19.026;2023-07-31T07:36:27;6.13;;;5.50;;
18387;SDS011;9320;50.256;19.026;2023-07-31T07:38:55;6.30;;;5.53;;
18387;SDS011;9320;50.256;19.026;2023-07-31T07:41:24;11.52;;;5.82;;
18387;SDS011;9320;50.256;19.026;2023-07-31T07:43:52;10.05;;;5.40;;
18387;SDS011;9320;50.256;19.026;2023-07-31T07:46:21;11.45;;;5.25;;
18387;SDS011;9320;50.256;19.026;2023-07-31T07:48:49;7.20;;;5.15;;
18387;SDS011;9320;50.256;19.026;2023-07-31T07:51:17;8.32;;;5.10;;
18387;SDS011;9320;50.256;19.026;2023-07-31T07:53:45;8.00;;;5.20;;
18387;SDS011;9320;50.256;19.026;2023-07-31T07:56:13;7.50;;;5.75;;
18387;SDS011;9320;50.256;19.026;2023-07-31T07:58:41;6.60;;;5.18;;
18387;SDS011;9320;50.256;19.026;2023-07-31T08:01:09;7.40;;;5.03;;
18387;SDS011;9320;50.256;19.026;2023-07-31T08:03:39;6.72;;;5.35;;
18387;SDS011;9320;50.256;19.026;2023-07-31T08:06:07;7.22;;;5.07;;
18387;SDS011;9320;50.256;19.026;2023-07-31T08:08:35;6.70;;;5.40;;
18387;SDS011;9320;50.256;19.026;2023-07-31T08:11:03;10.27;;;5.38;;
18387;SDS011;9320;50.256;19.026;2023-07-31T08:13:32;7.78;;;5.20;;
18387;SDS011;9320;50.256;19.026;2023-07-31T08:16:00;7.40;;;5.47;;
18387;SDS011;9320;50.256;19.026;2023-07-31T08:18:28;11.82;;;5.22;;
18387;SDS011;9320;50.256;19.026;2023-07-31T08:20:57;7.25;;;5.10;;
18387;SDS011;9320;50.256;19.026;2023-07-31T08:23:25;8.38;;;4.90;;
18387;SDS011;9320;50.256;19.026;2023-07-31T08:25:53;10.95;;;5.22;;
18387;SDS011;9320;50.256;19.026;2023-07-31T08:28:21;5.10;;;4.60;;
18387;SDS011;9320;50.256;19.026;2023-07-31T08:30:49;6.93;;;4.80;;
18387;SDS011;9320;50.256;19.026;2023-07-31T08:33:17;6.75;;;4.57;;
18387;SDS011;9320;50.256;19.026;2023-07-31T08:35:45;7.82;;;4.85;;
18387;SDS011;9320;50.256;19.026;2023-07-31T08:38:16;7.35;;;5.03;;
18387;SDS011;9320;50.256;19.026;2023-07-31T08:40:44;7.10;;;4.80;;
18387;SDS011;9320;50.256;19.026;2023-07-31T08:43:12;6.68;;;5.00;;
18387;SDS011;9320;50.256;19.026;2023-07-31T08:45:41;5.65;;;4.22;;
18387;SDS011;9320;50.256;19.026;2023-07-31T08:48:10;6.63;;;4.80;;
18387;SDS011;9320;50.256;19.026;2023-07-31T08:50:39;6.68;;;4.40;;
18387;SDS011;9320;50.256;19.026;2023-07-31T08:53:07;10.52;;;4.50;;
18387;SDS011;9320;50.256;19.026;2023-07-31T08:55:37;10.13;;;4.32;;
18387;SDS011;9320;50.256;19.026;2023-07-31T08:58:05;5.00;;;4.20;;
18387;SDS011;9320;50.256;19.026;2023-07-31T09:00:34;5.00;;;4.50;;
18387;SDS011;9320;50.256;19.026;2023-07-31T09:03:06;7.55;;;4.03;;
18387;SDS011;9320;50.256;19.026;2023-07-31T09:05:37;7.43;;;4.25;;
18387;SDS011;9320;50.256;19.026;2023-07-31T09:08:09;5.15;;;3.92;;
18387;SDS011;9320;50.256;19.026;2023-07-31T09:10:41;7.38;;;4.32;;
18387;SDS011;9320;50.256;19.026;2023-07-31T09:13:10;6.97;;;4.25;;
18387;SDS011;9320;50.256;19.026;2023-07-31T09:15:38;4.93;;;4.25;;
18387;SDS011;9320;50.256;19.026;2023-07-31T09:18:07;5.75;;;4.65;;
18387;SDS011;9320;50.256;19.026;2023-07-31T09:20:36;5.97;;;4.85;;
18387;SDS011;9320;50.256;19.026;2023-07-31T09:23:05;8.48;;;4.47;;
18387;SDS011;9320;50.256;19.026;2023-07-31T09:25:35;7.95;;;4.55;;
18387;SDS011;9320;50.256;19.026;2023-07-31T09:28:05;7.07;;;4.57;;
18387;SDS011;9320;50.256;19.026;2023-07-31T09:30:44;8.23;;;4.60;;
18387;SDS011;9320;50.256;19.026;2023-07-31T09:33:14;5.35;;;4.85;;
18387;SDS011;9320;50.256;19.026;2023-07-31T09:35:43;5.80;;;4.32;;
18387;SDS011;9320;50.256;19.026;2023-07-31T09:38:11;5.32;;;4.28;;
18387;SDS011;9320;50.256;19.026;2023-07-31T09:40:40;4.75;;;3.58;;
18387;SDS011;9320;50.256;19.026;2023-07-31T09:43:11;7.25;;;3.70;;
18387;SDS011;9320;50.256;19.026;2023-07-31T09:45:41;4.70;;;3.70;;
18387;SDS011;9320;50.256;19.026;2023-07-31T09:48:10;6.50;;;4.22;;
18387;SDS011;9320;50.256;19.026;2023-07-31T09:50:40;5.80;;;4.13;;
18387;SDS011;9320;50.256;19.026;2023-07-31T09:53:09;6.07;;;3.90;;
18387;SDS011;9320;50.256;19.026;2023-07-31T09:55:38;4.40;;;4.00;;
18387;SDS011;9320;50.256;19.026;2023-07-31T09:58:07;5.28;;;4.00;;
18387;SDS011;9320;50.256;19.026;2023-07-31T10:00:38;6.68;;;3.50;;
18387;SDS011;9320;50.256;19.026;2023-07-31T10:03:07;5.07;;;3.58;;
18387;SDS011;9320;50.256;19.026;2023-07-31T10:05:38;5.43;;;3.90;;
18387;SDS011;9320;50.256;19.026;2023-07-31T10:08:09;6.40;;;3.75;;
18387;SDS011;9320;50.256;19.026;2023-07-31T10:10:41;4.10;;;3.70;;
18387;SDS011;9320;50.256;19.026;2023-07-31T10:13:11;6.13;;;3.50;;
18387;SDS011;9320;50.256;19.026;2023-07-31T10:15:40;5.55;;;3.72;;
18387;SDS011;9320;50.256;19.026;2023-07-31T10:18:10;6.30;;;3.50;;
18387;SDS011;9320;50.256;19.026;2023-07-31T10:20:38;3.97;;;3.53;;
18387;SDS011;9320;50.256;19.026;2023-07-31T10:23:08;4.22;;;3.72;;
18387;SDS011;9320;50.256;19.026;2023-07-31T10:25:37;7.97;;;3.78;;
18387;SDS011;9320;50.256;19.026;2023-07-31T10:28:06;4.63;;;3.80;;
18387;SDS011;9320;50.256;19.026;2023-07-31T10:30:35;4.40;;;3.50;;
18387;SDS011;9320;50.256;19.026;2023-07-31T10:33:06;4.85;;;3.50;;
18387;SDS011;9320;50.256;19.026;2023-07-31T10:35:35;6.90;;;3.90;;
18387;SDS011;9320;50.256;19.026;2023-07-31T10:38:09;6.78;;;3.80;;
18387;SDS011;9320;50.256;19.026;2023-07-31T10:40:38;5.45;;;3.60;;
18387;SDS011;9320;50.256;19.026;2023-07-31T10:43:06;5.13;;;3.50;;
18387;SDS011;9320;50.256;19.026;2023-07-31T10:45:38;7.60;;;3.90;;
18387;SDS011;9320;50.256;19.026;2023-07-31T10:48:13;5.70;;;3.90;;
18387;SDS011;9320;50.256;19.026;2023-07-31T10:50:46;6.15;;;4.40;;
18387;SDS011;9320;50.256;19.026;2023-07-31T10:53:22;7.00;;;4.05;;
18387;SDS011;9320;50.256;19.026;2023-07-31T10:55:50;5.35;;;3.83;;
18387;SDS011;9320;50.256;19.026;2023-07-31T10:58:20;4.68;;;3.78;;
18387;SDS011;9320;50.256;19.026;2023-07-31T11:00:48;10.18;;;4.60;;
18387;SDS011;9320;50.256;19.026;2023-07-31T11:03:19;7.53;;;4.30;;
18387;SDS011;9320;50.256;19.026;2023-07-31T11:05:50;4.38;;;3.78;;
18387;SDS011;9320;50.256;19.026;2023-07-31T11:08:20;7.30;;;4.10;;
18387;SDS011;9320;50.256;19.026;2023-07-31T11:10:50;5.05;;;3.72;;
18387;SDS011;9320;50.256;19.026;2023-07-31T11:13:32;6.47;;;4.18;;
18387;SDS011;9320;50.256;19.026;2023-07-31T11:16:06;6.47;;;4.00;;
18387;SDS011;9320;50.256;19.026;2023-07-31T11:18:38;8.02;;;4.45;;
18387;SDS011;9320;50.256;19.026;2023-07-31T11:21:07;4.97;;;4.43;;
18387;SDS011;9320;50.256;19.026;2023-07-31T11:23:36;5.60;;;4.15;;
18387;SDS011;9320;50.256;19.026;2023-07-31T11:26:05;4.40;;;4.00;;
18387;SDS011;9320;50.256;19.026;2023-07-31T11:28:34;4.40;;;3.90;;
18387;SDS011;9320;50.256;19.026;2023-07-31T11:31:03;7.97;;;4.38;;
18387;SDS011;9320;50.256;19.026;2023-07-31T11:33:32;5.82;;;4.57;;
18387;SDS011;9320;50.256;19.026;2023-07-31T11:36:02;9.23;;;4.47;;
18387;SDS011;9320;50.256;19.026;2023-07-31T11:38:31;5.40;;;4.13;;
18387;SDS011;9320;50.256;19.026;2023-07-31T11:41:01;6.88;;;4.30;;
18387;SDS011;9320;50.256;19.026;2023-07-31T11:43:30;6.20;;;4.32;;
18387;SDS011;9320;50.256;19.026;2023-07-31T11:45:59;4.93;;;4.43;;
18387;SDS011;9320;50.256;19.026;2023-07-31T11:48:31;4.78;;;4.18;;
18387;SDS011;9320;50.256;19.026;2023-07-31T11:51:03;6.95;;;4.18;;
18387;SDS011;9320;50.256;19.026;2023-07-31T11:53:33;7.35;;;4.38;;
18387;SDS011;9320;50.256;19.026;2023-07-31T11:56:04;6.53;;;4.40;;
18387;SDS011;9320;50.256;19.026;2023-07-31T11:58:35;4.80;;;4.13;;
18387;SDS011;9320;50.256;19.026;2023-07-31T12:01:04;6.18;;;4.28;;
18387;SDS011;9320;50.256;19.026;2023-07-31T12:03:32;5.75;;;4.32;;
18387;SDS011;9320;50.256;19.026;2023-07-31T12:06:03;6.32;;;4.32;;
18387;SDS011;9320;50.256;19.026;2023-07-31T12:08:31;6.63;;;5.20;;
18387;SDS011;9320;50.256;19.026;2023-07-31T12:11:01;5.97;;;4.60;;
18387;SDS011;9320;50.256;19.026;2023-07-31T12:13:31;5.10;;;4.60;;
18387;SDS011;9320;50.256;19.026;2023-07-31T12:16:00;8.45;;;4.38;;
18387;SDS011;9320;50.256;19.026;2023-07-31T12:18:30;4.75;;;4.32;;
18387;SDS011;9320;50.256;19.026;2023-07-31T12:21:04;4.93;;;4.25;;
18387;SDS011;9320;50.256;19.026;2023-07-31T12:23:33;4.65;;;4.20;;
18387;SDS011;9320;50.256;19.026;2023-07-31T12:26:03;4.40;;;4.00;;
18387;SDS011;9320;50.256;19.026;2023-07-31T12:28:34;6.00;;;4.18;;
18387;SDS011;9320;50.256;19.026;2023-07-31T12:31:04;4.30;;;3.90;;
18387;SDS011;9320;50.256;19.026;2023-07-31T12:33:33;4.78;;;4.28;;
18387;SDS011;9320;50.256;19.026;2023-07-31T12:36:04;6.75;;;4.05;;
18387;SDS011;9320;50.256;19.026;2023-07-31T12:38:35;7.05;;;4.10;;
18387;SDS011;9320;50.256;19.026;2023-07-31T12:41:03;5.75;;;3.80;;
18387;SDS011;9320;50.256;19.026;2023-07-31T12:43:33;5.05;;;4.00;;
18387;SDS011;9320;50.256;19.026;2023-07-31T12:46:01;6.97;;;4.18;;
18387;SDS011;9320;50.256;19.026;2023-07-31T12:48:30;4.80;;;4.30;;
18387;SDS011;9320;50.256;19.026;2023-07-31T12:50:59;6.53;;;3.80;;
18387;SDS011;9320;50.256;19.026;2023-07-31T12:53:28;5.82;;;4.25;;
18387;SDS011;9320;50.256;19.026;2023-07-31T12:55:57;7.57;;;4.00;;
18387;SDS011;9320;50.256;19.026;2023-07-31T12:58:25;7.22;;;3.95;;
18387;SDS011;9320;50.256;19.026;2023-07-31T13:00:53;8.60;;;4.22;;
18387;SDS011;9320;50.256;19.026;2023-07-31T13:03:21;8.63;;;4.20;;
18387;SDS011;9320;50.256;19.026;2023-07-31T13:05:49;8.50;;;4.35;;
18387;SDS011;9320;50.256;19.026;2023-07-31T13:08:19;5.88;;;4.43;;
18387;SDS011;9320;50.256;19.026;2023-07-31T13:10:48;8.52;;;4.00;;
18387;SDS011;9320;50.256;19.026;2023-07-31T13:13:16;5.38;;;3.65;;
18387;SDS011;9320;50.256;19.026;2023-07-31T13:15:44;6.30;;;4.00;;
18387;SDS011;9320;50.256;19.026;2023-07-31T13:18:12;6.18;;;3.90;;
18387;SDS011;9320;50.256;19.026;2023-07-31T13:20:40;7.55;;;4.07;;
18387;SDS011;9320;50.256;19.026;2023-07-31T13:23:08;5.82;;;4.20;;
18387;SDS011;9320;50.256;19.026;2023-07-31T13:25:36;4.30;;;3.90;;
18387;SDS011;9320;50.256;19.026;2023-07-31T13:28:06;5.63;;;4.00;;
18387;SDS011;9320;50.256;19.026;2023-07-31T13:30:34;5.93;;;3.92;;
18387;SDS011;9320;50.256;19.026;2023-07-31T13:33:02;4.97;;;3.90;;
18387;SDS011;9320;50.256;19.026;2023-07-31T13:35:30;4.97;;;4.13;;
18387;SDS011;9320;50.256;19.026;2023-07-31T13:37:58;6.13;;;3.95;;
18387;SDS011;9320;50.256;19.026;2023-07-31T13:40:26;10.25;;;4.20;;
18387;SDS011;9320;50.256;19.026;2023-07-31T13:42:54;4.60;;;3.60;;
18387;SDS011;9320;50.256;19.026;2023-07-31T13:45:24;7.22;;;4.30;;
18387;SDS011;9320;50.256;19.026;2023-07-31T13:47:52;7.60;;;3.92;;
18387;SDS011;9320;50.256;19.026;2023-07-31T13:50:20;7.53;;;3.90;;
18387;SDS011;9320;50.256;19.026;2023-07-31T13:52:49;6.68;;;3.92;;
18387;SDS011;9320;50.256;19.026;2023-07-31T13:55:17;4.05;;;3.65;;
18387;SDS011;9320;50.256;19.026;2023-07-31T13:57:45;4.72;;;3.95;;
18387;SDS011;9320;50.256;19.026;2023-07-31T14:00:13;6.68;;;4.00;;
18387;SDS011;9320;50.256;19.026;2023-07-31T14:02:43;7.03;;;4.05;;
18387;SDS011;9320;50.256;19.026;2023-07-31T14:05:11;5.63;;;3.92;;
18387;SDS011;9320;50.256;19.026;2023-07-31T14:07:39;4.95;;;3.90;;
18387;SDS011;9320;50.256;19.026;2023-07-31T14:10:08;7.50;;;4.15;;
18387;SDS011;9320;50.256;19.026;2023-07-31T14:12:36;5.72;;;4.00;;
18387;SDS011;9320;50.256;19.026;2023-07-31T14:15:09;4.07;;;3.67;;
18387;SDS011;9320;50.256;19.026;2023-07-31T14:17:37;9.73;;;4.13;;
18387;SDS011;9320;50.256;19.026;2023-07-31T14:20:08;10.05;;;4.20;;
18387;SDS011;9320;50.256;19.026;2023-07-31T14:22:38;4.93;;;4.43;;
18387;SDS011;9320;50.256;19.026;2023-07-31T14:25:06;6.95;;;4.28;;
18387;SDS011;9320;50.256;19.026;2023-07-31T14:27:36;7.03;;;3.90;;
18387;SDS011;9320;50.256;19.026;2023-07-31T14:30:05;4.57;;;4.07;;
18387;SDS011;9320;50.256;19.026;2023-07-31T14:32:34;5.60;;;4.18;;
18387;SDS011;9320;50.256;19.026;2023-07-31T14:35:03;5.57;;;3.80;;
18387;SDS011;9320;50.256;19.026;2023-07-31T14:37:37;4.93;;;3.67;;
18387;SDS011;9320;50.256;19.026;2023-07-31T14:40:06;5.75;;;4.13;;
18387;SDS011;9320;50.256;19.026;2023-07-31T14:42:36;4.35;;;3.58;;
18387;SDS011;9320;50.256;19.026;2023-07-31T14:45:05;6.25;;;3.67;;
18387;SDS011;9320;50.256;19.026;2023-07-31T14:47:34;4.28;;;3.88;;
18387;SDS011;9320;50.256;19.026;2023-07-31T14:50:02;7.10;;;4.55;;
18387;SDS011;9320;50.256;19.026;2023-07-31T14:52:31;9.18;;;4.53;;
18387;SDS011;9320;50.256;19.026;2023-07-31T14:55:01;6.00;;;4.57;;